< < Back
Terminal Aerodrome Forecast


Current Version              Previous Versions:   1  2  3  4  5  6  7  8  9  

Terminal Aerodrome Forecast

966
FTUS42 KGSP 021100
TAFGSP
TAF
KGSP 021130Z 0212/0312 23004KT P6SM SCT250
     FM021600 23006KT P6SM SCT060 BKN250
     FM022100 25006KT P6SM BKN060 PROB30 0221/0301 4SM TSRA BKN040CB
     FM030100 21004KT P6SM BKN060
     FM030500 00000KT P6SM BKN080=

Latest METAR

062
SAUS70 KWBC 021400 RRJ
MTRGSP
METAR KGSP 021353Z 25005KT 10SM CLR 28/22 A3010 RMK AO2 SLP178
T02830217


USA.gov is the U.S. government's official web portal to all federal, state and local government web resources and services.